createdAt,value
2019-03-11T00:00:22.258Z,2.90
2019-03-11T00:02:50.758Z,2.53
2019-03-11T00:05:19.222Z,3.13
2019-03-11T00:07:47.653Z,2.40
2019-03-11T00:10:16.168Z,2.23
2019-03-11T00:12:44.615Z,2.43
2019-03-11T00:15:13.130Z,2.10
2019-03-11T00:17:41.564Z,3.27
2019-03-11T00:20:10.100Z,3.70
2019-03-11T00:22:38.522Z,3.60
2019-03-11T00:25:08.015Z,3.40
2019-03-11T00:27:36.459Z,2.83
2019-03-11T00:30:10.149Z,2.53
2019-03-11T00:32:38.653Z,2.43
2019-03-11T00:35:07.261Z,1.90
2019-03-11T00:37:35.701Z,2.30
2019-03-11T00:40:06.871Z,2.50
2019-03-11T00:42:35.327Z,1.70
2019-03-11T00:45:05.399Z,1.63
2019-03-11T00:47:33.865Z,1.60
2019-03-11T00:50:02.437Z,2.50
2019-03-11T00:52:30.936Z,2.20
2019-03-11T00:54:59.401Z,1.77
2019-03-11T00:57:27.861Z,2.97
2019-03-11T00:59:56.371Z,2.53
2019-03-11T01:02:24.901Z,1.60
2019-03-11T01:04:53.337Z,1.67
2019-03-11T01:07:21.862Z,1.97
2019-03-11T01:09:50.298Z,2.80
2019-03-11T01:12:18.751Z,1.93
2019-03-11T01:14:47.190Z,2.20
2019-03-11T01:17:15.642Z,1.83
2019-03-11T01:19:44.081Z,1.60
2019-03-11T01:22:12.522Z,2.57
2019-03-11T01:24:40.976Z,1.50
2019-03-11T01:27:09.425Z,2.43
2019-03-11T01:29:37.862Z,1.33
2019-03-11T01:32:06.370Z,3.03
2019-03-11T01:34:34.802Z,3.97
2019-03-11T01:37:03.267Z,2.50
2019-03-11T01:39:31.832Z,2.87
2019-03-11T01:42:00.286Z,2.60
2019-03-11T01:44:28.729Z,2.30
2019-03-11T01:46:57.180Z,3.57
2019-03-11T01:49:25.608Z,3.67
2019-03-11T01:51:54.049Z,2.03
2019-03-11T01:54:22.502Z,2.57
2019-03-11T01:56:50.948Z,1.70
2019-03-11T01:59:19.405Z,3.27
2019-03-11T02:01:48.619Z,2.63
2019-03-11T02:04:17.236Z,2.87
2019-03-11T02:06:45.674Z,2.77
2019-03-11T02:09:14.303Z,3.60
2019-03-11T02:11:42.730Z,3.50
2019-03-11T02:14:11.182Z,6.07
2019-03-11T02:16:39.693Z,4.07
2019-03-11T02:19:08.146Z,3.80
2019-03-11T02:21:36.584Z,3.10
2019-03-11T02:24:05.166Z,3.13
2019-03-11T02:26:33.603Z,1.40
2019-03-11T02:29:02.065Z,2.73
2019-03-11T02:31:30.506Z,1.40
2019-03-11T02:33:58.941Z,2.00
2019-03-11T02:36:27.375Z,2.87
2019-03-11T02:38:55.848Z,4.90
2019-03-11T02:41:24.341Z,4.70
2019-03-11T02:43:52.800Z,2.57
2019-03-11T02:46:21.230Z,9.97
2019-03-11T02:48:49.685Z,3.40
2019-03-11T02:51:18.195Z,4.80
2019-03-11T02:53:46.672Z,3.33
2019-03-11T02:56:15.132Z,4.27
2019-03-11T02:58:43.647Z,2.43
2019-03-11T03:01:29.723Z,4.70
2019-03-11T03:03:59.818Z,3.00
2019-03-11T03:06:28.256Z,2.20
2019-03-11T03:08:56.726Z,4.53
2019-03-11T03:11:25.154Z,5.97
2019-03-11T03:13:53.613Z,1.93
2019-03-11T03:16:22.042Z,5.80
2019-03-11T03:18:50.471Z,1.53
2019-03-11T03:21:18.928Z,4.43
2019-03-11T03:23:47.365Z,2.43
2019-03-11T03:26:15.815Z,1.43
2019-03-11T03:28:44.239Z,1.67
2019-03-11T03:31:12.819Z,1.83
2019-03-11T03:33:41.313Z,1.73
2019-03-11T03:36:09.765Z,3.20
2019-03-11T03:38:38.199Z,3.30
2019-03-11T03:41:06.663Z,1.23
2019-03-11T03:43:35.092Z,3.43
2019-03-11T03:46:17.482Z,1.83
2019-03-11T03:48:33.742Z,4.53
2019-03-11T03:51:02.244Z,1.90
2019-03-11T03:53:30.755Z,6.10
2019-03-11T03:55:59.207Z,1.67
2019-03-11T03:58:27.632Z,4.67
2019-03-11T04:00:56.091Z,3.97
2019-03-11T04:03:24.534Z,1.43
2019-03-11T04:05:53.005Z,3.07
2019-03-11T04:08:21.507Z,3.57
2019-03-11T04:10:50.036Z,4.87
2019-03-11T04:13:18.475Z,3.13
2019-03-11T04:15:46.997Z,3.67
2019-03-11T04:18:15.516Z,3.37
2019-03-11T04:20:44.078Z,4.23
2019-03-11T04:23:12.601Z,2.33
2019-03-11T04:25:41.130Z,2.10
2019-03-11T04:28:09.661Z,3.30
2019-03-11T04:30:38.237Z,3.83
2019-03-11T04:33:06.742Z,5.10
2019-03-11T04:35:35.206Z,2.60
2019-03-11T04:38:03.738Z,4.63
2019-03-11T04:40:32.190Z,5.80
2019-03-11T04:43:00.629Z,32.73
2019-03-11T04:45:29.053Z,5.57
2019-03-11T04:47:57.501Z,4.17
2019-03-11T04:50:25.947Z,4.47
2019-03-11T04:52:54.400Z,4.37
2019-03-11T04:55:22.839Z,2.83
2019-03-11T04:57:54.894Z,4.80
2019-03-11T05:00:28.106Z,2.67
2019-03-11T05:02:56.570Z,5.67
2019-03-11T05:05:25.088Z,5.13
2019-03-11T05:07:53.560Z,5.73
2019-03-11T05:10:21.986Z,2.13
2019-03-11T05:12:50.452Z,4.13
2019-03-11T05:15:18.914Z,3.67
2019-03-11T05:17:48.690Z,3.43
2019-03-11T05:20:17.954Z,4.00
2019-03-11T05:22:46.517Z,6.00
2019-03-11T05:25:15.519Z,3.40
2019-03-11T05:27:44.687Z,5.83
2019-03-11T05:30:17.184Z,4.83
2019-03-11T05:32:45.780Z,7.43
2019-03-11T05:35:14.284Z,4.17
2019-03-11T05:37:42.751Z,4.43
2019-03-11T05:40:18.906Z,5.57
2019-03-11T05:42:47.435Z,6.27
2019-03-11T05:45:17.888Z,3.00
2019-03-11T05:47:46.416Z,5.43
2019-03-11T05:50:16.946Z,5.63
2019-03-11T05:52:45.390Z,4.07
2019-03-11T05:55:14.068Z,6.50
2019-03-11T05:57:42.608Z,4.07
2019-03-11T06:00:18.149Z,5.63
2019-03-11T06:02:46.654Z,3.60
2019-03-11T06:05:15.165Z,5.23
2019-03-11T06:07:43.621Z,5.47
2019-03-11T06:10:13.591Z,2.37
2019-03-11T06:12:42.044Z,5.07
2019-03-11T06:15:12.105Z,3.83
2019-03-11T06:17:40.653Z,3.83
2019-03-11T06:20:21.409Z,4.77
2019-03-11T06:22:49.859Z,4.10
2019-03-11T06:25:18.314Z,2.10
2019-03-11T06:27:46.761Z,2.93
2019-03-11T06:30:15.342Z,3.67
2019-03-11T06:32:43.769Z,2.20
2019-03-11T06:35:12.307Z,3.47
2019-03-11T06:37:40.750Z,1.97
2019-03-11T06:40:12.940Z,1.57
2019-03-11T06:42:41.447Z,2.70
2019-03-11T06:45:13.755Z,2.37
2019-03-11T06:47:42.197Z,1.87
2019-03-11T06:50:12.717Z,2.93
2019-03-11T06:52:41.235Z,2.33
2019-03-11T06:55:10.837Z,2.13
2019-03-11T06:57:39.469Z,2.10
2019-03-11T07:00:20.672Z,0.90
2019-03-11T07:02:49.247Z,4.17
2019-03-11T07:05:20.383Z,0.70
2019-03-11T07:07:47.843Z,2.17
2019-03-11T07:10:16.834Z,1.93
2019-03-11T07:12:45.283Z,1.83
2019-03-11T07:15:14.944Z,1.17
2019-03-11T07:17:43.455Z,0.53
2019-03-11T07:20:18.576Z,1.37
2019-03-11T07:22:47.078Z,4.87
2019-03-11T07:25:15.532Z,1.40
2019-03-11T07:27:44.208Z,0.90
2019-03-11T07:30:19.184Z,2.40
2019-03-11T07:32:47.768Z,1.43
2019-03-11T07:35:16.287Z,1.30
2019-03-11T07:37:44.733Z,1.63
2019-03-11T07:40:14.598Z,2.67
2019-03-11T07:42:43.187Z,1.20
2019-03-11T07:45:17.358Z,2.37
2019-03-11T07:47:45.954Z,1.03
2019-03-11T07:50:16.552Z,1.33
2019-03-11T07:52:45.108Z,1.23
2019-03-11T07:55:13.998Z,2.17
2019-03-11T07:57:42.511Z,1.50
2019-03-11T08:00:18.214Z,2.00
2019-03-11T08:02:46.645Z,1.87
2019-03-11T08:05:15.350Z,3.93
2019-03-11T08:07:43.980Z,2.70
2019-03-11T08:10:14.679Z,2.13
2019-03-11T08:12:43.110Z,2.23
2019-03-11T08:15:15.154Z,2.57
2019-03-11T08:17:43.596Z,2.00
2019-03-11T08:20:13.384Z,1.80
2019-03-11T08:22:41.964Z,2.03
2019-03-11T08:25:12.029Z,1.90
2019-03-11T08:27:40.550Z,2.53
2019-03-11T08:30:16.747Z,2.03
2019-03-11T08:32:45.203Z,1.40
2019-03-11T08:35:13.715Z,2.90
2019-03-11T08:37:42.243Z,1.83
2019-03-11T08:40:14.871Z,2.77
2019-03-11T08:42:43.391Z,1.63
2019-03-11T08:45:16.421Z,3.53
2019-03-11T08:47:45.051Z,5.63
2019-03-11T08:50:14.949Z,2.80
2019-03-11T08:52:43.529Z,1.60
2019-03-11T08:55:12.133Z,2.77
2019-03-11T08:57:41.549Z,1.80
2019-03-11T09:00:20.667Z,2.97
2019-03-11T09:02:49.118Z,2.40
2019-03-11T09:05:17.701Z,2.17
2019-03-11T09:07:46.205Z,2.67
2019-03-11T09:10:18.374Z,3.60
2019-03-11T09:12:46.970Z,2.20
2019-03-11T09:15:17.618Z,1.73
2019-03-11T09:17:46.073Z,4.57
2019-03-11T09:20:15.672Z,3.20
2019-03-11T09:22:44.190Z,2.07
2019-03-11T09:25:16.755Z,3.43
2019-03-11T09:27:45.290Z,2.70
2019-03-11T09:30:20.971Z,2.67
2019-03-11T09:32:49.424Z,2.77
2019-03-11T09:35:18.055Z,2.13
2019-03-11T09:37:46.580Z,2.00
2019-03-11T09:40:17.157Z,2.73
2019-03-11T09:42:45.606Z,3.80
2019-03-11T09:45:16.153Z,3.30
2019-03-11T09:47:44.747Z,1.83
2019-03-11T09:50:14.602Z,2.03
2019-03-11T09:52:43.206Z,3.67
2019-03-11T09:55:16.734Z,1.50
2019-03-11T09:57:46.884Z,3.40
2019-03-11T10:00:28.983Z,1.97
2019-03-11T10:02:57.435Z,2.40
2019-03-11T10:05:26.027Z,4.33
2019-03-11T10:07:54.604Z,2.83
2019-03-11T10:10:27.974Z,3.03
2019-03-11T10:12:56.428Z,2.03
2019-03-11T10:15:24.935Z,2.27
2019-03-11T10:17:53.391Z,2.47
2019-03-11T10:20:21.898Z,1.83
2019-03-11T10:22:50.398Z,2.07
2019-03-11T10:25:21.648Z,2.83
2019-03-11T10:27:50.154Z,4.10
2019-03-11T10:30:22.536Z,2.53
2019-03-11T10:32:51.038Z,2.83
2019-03-11T10:35:31.243Z,5.70
2019-03-11T10:37:50.366Z,6.23
2019-03-11T10:40:23.812Z,1.60
2019-03-11T10:42:52.547Z,1.77
2019-03-11T10:45:30.286Z,2.87
2019-03-11T10:47:51.228Z,2.63
2019-03-11T10:50:20.525Z,1.60
2019-03-11T10:52:49.032Z,1.67
2019-03-11T10:55:24.453Z,1.63
2019-03-11T10:57:53.073Z,3.73
2019-03-11T11:00:33.694Z,2.43
2019-03-11T11:03:02.270Z,1.17
2019-03-11T11:05:30.944Z,3.83
2019-03-11T11:07:59.455Z,1.30
2019-03-11T11:10:27.910Z,1.33
2019-03-11T11:12:56.358Z,3.07
2019-03-11T11:15:32.759Z,2.00
2019-03-11T11:18:01.227Z,1.60
2019-03-11T11:20:29.760Z,2.87
2019-03-11T11:22:58.326Z,1.83
2019-03-11T11:25:28.229Z,2.20
2019-03-11T11:27:56.895Z,2.43
2019-03-11T11:30:29.142Z,1.90
2019-03-11T11:32:57.650Z,3.00
2019-03-11T11:35:26.181Z,2.63
2019-03-11T11:37:54.621Z,1.10
2019-03-11T11:40:26.794Z,2.77
2019-03-11T11:42:55.674Z,2.93
2019-03-11T11:45:25.288Z,4.50
2019-03-11T11:47:53.788Z,3.67
2019-03-11T11:50:25.751Z,3.33
2019-03-11T11:52:55.638Z,3.30
2019-03-11T11:55:24.690Z,1.80
2019-03-11T11:57:53.278Z,2.37
2019-03-11T12:00:33.715Z,2.60
2019-03-11T12:03:02.158Z,1.60
2019-03-11T12:05:30.757Z,1.10
2019-03-11T12:07:59.187Z,1.90
2019-03-11T12:10:29.079Z,2.43
2019-03-11T12:12:57.525Z,1.33
2019-03-11T12:15:25.982Z,1.57
2019-03-11T12:17:54.424Z,1.90
2019-03-11T12:20:30.514Z,1.37
2019-03-11T12:22:58.947Z,1.53
2019-03-11T12:25:27.567Z,1.00
2019-03-11T12:27:58.010Z,1.10
2019-03-11T12:30:30.269Z,1.63
2019-03-11T12:32:58.853Z,2.63
2019-03-11T12:35:27.541Z,1.87
2019-03-11T12:37:56.417Z,2.80
2019-03-11T12:40:24.917Z,1.20
2019-03-11T12:42:53.454Z,2.10
2019-03-11T12:45:25.983Z,1.03
2019-03-11T12:47:54.831Z,0.83
2019-03-11T12:50:32.975Z,0.50
2019-03-11T12:53:01.426Z,0.97
2019-03-11T12:55:29.859Z,1.30
2019-03-11T12:57:58.317Z,2.40
2019-03-11T13:00:26.999Z,2.73
2019-03-11T13:02:56.338Z,0.53
2019-03-11T13:05:24.776Z,0.97
2019-03-11T13:07:53.233Z,1.03
2019-03-11T13:10:25.377Z,1.27
2019-03-11T13:12:54.073Z,0.30
2019-03-11T13:15:22.496Z,0.33
2019-03-11T13:17:51.018Z,0.70
2019-03-11T13:20:28.828Z,0.60
2019-03-11T13:22:57.421Z,0.77
2019-03-11T13:25:25.920Z,0.70
2019-03-11T13:27:55.379Z,0.97
2019-03-11T13:30:23.914Z,1.03
2019-03-11T13:32:52.451Z,1.87
2019-03-11T13:35:20.960Z,0.70
2019-03-11T13:37:49.483Z,0.93
2019-03-11T13:40:18.055Z,0.70
2019-03-11T13:42:46.535Z,0.67
2019-03-11T13:45:18.601Z,0.77
2019-03-11T13:47:47.260Z,0.80
2019-03-11T13:50:17.242Z,1.60
2019-03-11T13:52:45.773Z,0.50
2019-03-11T13:55:15.950Z,0.80
2019-03-11T13:57:44.498Z,1.30
2019-03-11T14:00:18.156Z,0.60
2019-03-11T14:02:46.970Z,0.70
2019-03-11T14:05:15.474Z,2.03
2019-03-11T14:07:44.144Z,1.53
2019-03-11T14:10:13.800Z,1.77
2019-03-11T14:12:42.298Z,1.30
2019-03-11T14:15:12.978Z,0.63
2019-03-11T14:17:41.421Z,2.03
2019-03-11T14:20:11.636Z,1.00
2019-03-11T14:22:40.151Z,0.70
2019-03-11T14:25:12.875Z,1.30
2019-03-11T14:27:41.420Z,0.60
2019-03-11T14:30:20.809Z,1.53
2019-03-11T14:32:49.250Z,1.70
2019-03-11T14:35:17.942Z,1.70
2019-03-11T14:37:46.678Z,1.07
2019-03-11T14:40:16.387Z,1.33
2019-03-11T14:42:44.941Z,2.13
2019-03-11T14:45:18.478Z,1.87
2019-03-11T14:47:47.075Z,2.07
2019-03-11T14:50:16.463Z,4.40
2019-03-11T14:52:44.920Z,1.30
2019-03-11T14:55:14.978Z,0.90
2019-03-11T14:57:43.579Z,1.20
2019-03-11T15:00:21.665Z,1.57
2019-03-11T15:02:50.312Z,1.40
2019-03-11T15:05:19.486Z,0.83
2019-03-11T15:07:48.271Z,3.40
2019-03-11T15:10:20.349Z,2.03
2019-03-11T15:12:49.241Z,1.23
2019-03-11T15:15:25.519Z,1.17
2019-03-11T15:17:53.962Z,1.17
2019-03-11T15:20:22.568Z,2.43
2019-03-11T15:22:51.080Z,1.83
2019-03-11T15:25:19.845Z,2.10
2019-03-11T15:27:48.520Z,2.07
2019-03-11T15:30:21.082Z,2.50
2019-03-11T15:32:49.655Z,1.60
2019-03-11T15:35:18.154Z,2.00
2019-03-11T15:37:46.745Z,1.43
2019-03-11T15:40:18.606Z,2.37
2019-03-11T15:42:47.314Z,1.93
2019-03-11T15:45:16.792Z,2.73
2019-03-11T15:47:45.331Z,1.93
2019-03-11T15:50:28.503Z,1.77
2019-03-11T15:52:57.050Z,2.70
2019-03-11T15:55:25.530Z,2.50
2019-03-11T15:57:53.984Z,3.67
2019-03-11T16:00:23.358Z,1.73
2019-03-11T16:02:51.973Z,4.63
2019-03-11T16:05:21.609Z,3.50
2019-03-11T16:07:50.190Z,1.87
2019-03-11T16:10:18.883Z,2.27
2019-03-11T16:12:47.498Z,2.23
2019-03-11T16:15:16.902Z,1.30
2019-03-11T16:17:45.599Z,1.23
2019-03-11T16:20:19.139Z,2.07
2019-03-11T16:22:47.832Z,1.10
2019-03-11T16:25:16.334Z,1.40
2019-03-11T16:27:44.893Z,2.10
2019-03-11T16:30:16.164Z,2.93
2019-03-11T16:32:57.910Z,2.77
2019-03-11T16:35:14.793Z,2.53
2019-03-11T16:37:43.222Z,2.37
2019-03-11T16:40:13.111Z,2.10
2019-03-11T16:42:41.577Z,2.10
2019-03-11T16:45:11.681Z,1.70
2019-03-11T16:47:40.283Z,2.27
2019-03-11T16:50:11.705Z,2.13
2019-03-11T16:52:40.149Z,2.90
2019-03-11T16:55:11.744Z,4.13
2019-03-11T16:57:40.242Z,2.00
2019-03-11T17:00:14.019Z,2.33
2019-03-11T17:02:42.540Z,2.30
2019-03-11T17:05:11.142Z,3.50
2019-03-11T17:07:39.614Z,3.50
2019-03-11T17:10:11.211Z,3.67
2019-03-11T17:12:39.714Z,2.33
2019-03-11T17:15:08.902Z,3.20
2019-03-11T17:17:37.578Z,3.00
2019-03-11T17:20:09.579Z,3.23
2019-03-11T17:22:38.102Z,3.47
2019-03-11T17:25:09.096Z,8.53
2019-03-11T17:27:37.600Z,5.53
2019-03-11T17:30:17.033Z,7.97
2019-03-11T17:32:45.711Z,9.07
2019-03-11T17:35:15.506Z,6.13
2019-03-11T17:37:44.283Z,5.60
2019-03-11T17:40:15.681Z,6.97
2019-03-11T17:42:44.559Z,7.80
2019-03-11T17:45:14.794Z,7.80
2019-03-11T17:47:43.474Z,6.50
2019-03-11T17:50:21.967Z,10.17
2019-03-11T17:52:50.554Z,5.50
2019-03-11T17:55:19.744Z,5.37
2019-03-11T17:57:48.291Z,3.93
2019-03-11T18:00:26.343Z,4.13
2019-03-11T18:02:55.034Z,5.03
2019-03-11T18:05:23.684Z,9.63
2019-03-11T18:07:52.284Z,6.27
2019-03-11T18:10:20.869Z,5.73
2019-03-11T18:12:49.388Z,4.97
2019-03-11T18:15:17.899Z,6.20
2019-03-11T18:17:46.340Z,5.00
2019-03-11T18:20:16.475Z,5.63
2019-03-11T18:22:44.966Z,5.13
2019-03-11T18:25:15.387Z,5.93
2019-03-11T18:27:43.909Z,5.40
2019-03-11T18:30:28.716Z,5.03
2019-03-11T18:32:57.248Z,7.13
2019-03-11T18:35:25.861Z,5.03
2019-03-11T18:38:03.423Z,5.17
2019-03-11T18:40:24.721Z,5.50
2019-03-11T18:42:53.278Z,5.43
2019-03-11T18:45:21.771Z,6.23
2019-03-11T18:47:50.240Z,6.13
2019-03-11T18:50:23.634Z,6.27
2019-03-11T18:52:52.198Z,8.07
2019-03-11T18:55:20.798Z,5.67
2019-03-11T18:57:49.436Z,6.77
2019-03-11T19:00:21.705Z,5.30
2019-03-11T19:02:50.370Z,5.60
2019-03-11T19:05:23.599Z,6.37
2019-03-11T19:07:54.919Z,4.97
2019-03-11T19:10:22.422Z,6.00
2019-03-11T19:12:50.987Z,6.70
2019-03-11T19:15:20.905Z,5.07
2019-03-11T19:17:49.564Z,5.03
2019-03-11T19:20:24.866Z,7.03
2019-03-11T19:22:53.624Z,6.10
2019-03-11T19:25:22.378Z,4.07
2019-03-11T19:27:50.877Z,4.17
2019-03-11T19:30:21.915Z,4.30
2019-03-11T19:32:50.487Z,6.67
2019-03-11T19:35:19.861Z,4.67
2019-03-11T19:37:48.551Z,3.97
2019-03-11T19:40:24.948Z,4.93
2019-03-11T19:42:53.678Z,4.53
2019-03-11T19:45:22.308Z,4.97
2019-03-11T19:47:50.922Z,6.63
2019-03-11T19:50:19.814Z,5.80
2019-03-11T19:52:57.795Z,5.27
2019-03-11T19:55:18.745Z,5.40
2019-03-11T19:57:47.467Z,5.60
2019-03-11T20:00:23.700Z,5.93
2019-03-11T20:02:52.351Z,6.23
2019-03-11T20:05:28.739Z,6.47
2019-03-11T20:07:57.322Z,5.83
2019-03-11T20:10:26.063Z,5.63
2019-03-11T20:12:54.649Z,5.10
2019-03-11T20:15:23.261Z,5.77
2019-03-11T20:17:51.782Z,7.43
2019-03-11T20:20:21.179Z,6.47
2019-03-11T20:22:52.825Z,6.77
2019-03-11T20:25:29.445Z,6.53
2019-03-11T20:27:58.071Z,5.40
2019-03-11T20:30:26.665Z,5.97
2019-03-11T20:32:55.224Z,9.00
2019-03-11T20:35:23.735Z,5.67
2019-03-11T20:37:52.272Z,7.60
2019-03-11T20:40:20.809Z,8.90
2019-03-11T20:42:49.438Z,5.93
2019-03-11T20:45:19.988Z,8.47
2019-03-11T20:47:48.533Z,6.57
2019-03-11T20:50:17.954Z,7.00
2019-03-11T20:52:46.671Z,7.40
2019-03-11T20:55:16.602Z,7.40
2019-03-11T20:57:45.241Z,8.77
2019-03-11T21:00:23.527Z,16.77
2019-03-11T21:02:52.164Z,9.37
2019-03-11T21:05:29.432Z,7.53
2019-03-11T21:07:57.969Z,9.87
2019-03-11T21:10:26.529Z,7.07
2019-03-11T21:12:55.121Z,9.97
2019-03-11T21:15:23.696Z,7.00
2019-03-11T21:17:52.205Z,7.23
2019-03-11T21:20:20.749Z,6.47
2019-03-11T21:22:49.218Z,7.87
2019-03-11T21:25:21.413Z,8.70
2019-03-11T21:27:49.997Z,8.27
2019-03-11T21:30:23.287Z,8.97
2019-03-11T21:32:51.810Z,7.77
2019-03-11T21:35:20.562Z,9.47
2019-03-11T21:37:49.385Z,7.43
2019-03-11T21:40:22.408Z,8.87
2019-03-11T21:42:50.904Z,8.00
2019-03-11T21:45:19.520Z,7.60
2019-03-11T21:47:50.744Z,9.00
2019-03-11T21:50:28.107Z,9.93
2019-03-11T21:52:56.548Z,10.33
2019-03-11T21:55:25.127Z,7.73
2019-03-11T21:57:53.638Z,8.83
2019-03-11T22:00:33.782Z,8.93
2019-03-11T22:02:54.054Z,11.27
2019-03-11T22:05:22.623Z,11.60
2019-03-11T22:07:51.231Z,9.43
2019-03-11T22:10:20.218Z,14.30
2019-03-11T22:12:48.798Z,10.47
2019-03-11T22:15:21.470Z,9.13
2019-03-11T22:17:49.919Z,9.23
2019-03-11T22:20:18.826Z,11.30
2019-03-11T22:22:47.466Z,11.37
2019-03-11T22:25:22.354Z,10.77
2019-03-11T22:27:50.888Z,11.70
2019-03-11T22:30:25.769Z,9.13
2019-03-11T22:32:54.469Z,9.93
2019-03-11T22:35:22.904Z,10.03
2019-03-11T22:37:51.368Z,9.13
2019-03-11T22:40:20.346Z,9.13
2019-03-11T22:42:48.870Z,9.57
2019-03-11T22:45:20.393Z,8.93
2019-03-11T22:47:49.786Z,8.70
2019-03-11T22:50:18.365Z,7.87
2019-03-11T22:52:47.010Z,9.53
2019-03-11T22:55:15.987Z,10.00
2019-03-11T22:57:44.447Z,9.30
2019-03-11T23:00:32.414Z,11.77
2019-03-11T23:03:00.931Z,11.80
2019-03-11T23:05:29.385Z,9.57
2019-03-11T23:07:57.843Z,10.23
2019-03-11T23:10:26.285Z,10.20
2019-03-11T23:12:54.800Z,11.10
2019-03-11T23:15:23.237Z,10.80
2019-03-11T23:17:51.712Z,10.07
2019-03-11T23:20:20.148Z,11.97
2019-03-11T23:22:48.659Z,9.70
2019-03-11T23:25:17.095Z,9.57
2019-03-11T23:27:45.569Z,10.13
2019-03-11T23:30:15.233Z,10.93
2019-03-11T23:32:43.708Z,12.97
2019-03-11T23:35:12.328Z,11.53
2019-03-11T23:37:40.793Z,10.43
2019-03-11T23:40:09.810Z,10.30
2019-03-11T23:42:38.248Z,9.63
2019-03-11T23:45:08.931Z,12.07
2019-03-11T23:47:37.417Z,10.70
2019-03-11T23:50:08.937Z,11.27
2019-03-11T23:52:37.392Z,11.03
2019-03-11T23:55:07.573Z,11.40
2019-03-11T23:57:36.042Z,12.87
